sensor_id;sensor_type;location;lat;lon;timestamp;P1;durP1;ratioP1;P2;durP2;ratioP2
43226;SDS011;28839;52.404;9.808;2022-09-06T03:51:36;9.07;;;6.68;;
43226;SDS011;28839;52.404;9.808;2022-09-06T03:58:30;8.30;;;7.20;;
43226;SDS011;28839;52.404;9.808;2022-09-06T04:05:25;7.45;;;6.68;;
43226;SDS011;28839;52.404;9.808;2022-09-06T04:12:20;8.13;;;6.30;;
43226;SDS011;28839;52.404;9.808;2022-09-06T04:19:14;7.85;;;6.87;;
43226;SDS011;28839;52.404;9.808;2022-09-06T04:26:08;7.73;;;6.93;;
43226;SDS011;28839;52.404;9.808;2022-09-06T04:33:03;7.07;;;6.37;;
43226;SDS011;28839;52.404;9.808;2022-09-06T04:39:57;8.93;;;7.10;;
43226;SDS011;28839;52.404;9.808;2022-09-06T04:46:51;8.93;;;5.90;;
43226;SDS011;28839;52.404;9.808;2022-09-06T04:53:58;7.00;;;6.32;;
43226;SDS011;28839;52.404;9.808;2022-09-06T05:00:51;8.13;;;6.28;;
43226;SDS011;28839;52.404;9.808;2022-09-06T05:07:45;7.57;;;6.10;;
43226;SDS011;28839;52.404;9.808;2022-09-06T05:14:41;7.17;;;6.53;;
43226;SDS011;28839;52.404;9.808;2022-09-06T05:21:34;9.55;;;7.00;;
43226;SDS011;28839;52.404;9.808;2022-09-06T05:28:28;10.87;;;6.83;;
43226;SDS011;28839;52.404;9.808;2022-09-06T05:35:23;6.63;;;5.80;;
43226;SDS011;28839;52.404;9.808;2022-09-06T05:42:17;9.35;;;6.53;;
43226;SDS011;28839;52.404;9.808;2022-09-06T05:49:11;12.13;;;6.33;;
43226;SDS011;28839;52.404;9.808;2022-09-06T05:56:07;10.77;;;6.28;;
43226;SDS011;28839;52.404;9.808;2022-09-06T06:03:01;10.15;;;6.45;;
43226;SDS011;28839;52.404;9.808;2022-09-06T06:09:55;13.43;;;6.67;;
43226;SDS011;28839;52.404;9.808;2022-09-06T06:16:50;10.13;;;7.03;;
43226;SDS011;28839;52.404;9.808;2022-09-06T06:23:44;7.65;;;6.68;;
43226;SDS011;28839;52.404;9.808;2022-09-06T06:30:41;13.25;;;7.28;;
43226;SDS011;28839;52.404;9.808;2022-09-06T06:37:36;12.97;;;8.93;;
43226;SDS011;28839;52.404;9.808;2022-09-06T06:44:30;15.57;;;10.07;;
43226;SDS011;28839;52.404;9.808;2022-09-06T06:51:25;18.17;;;11.00;;
43226;SDS011;28839;52.404;9.808;2022-09-06T06:58:21;15.30;;;12.15;;
43226;SDS011;28839;52.404;9.808;2022-09-06T07:05:15;21.75;;;14.18;;
43226;SDS011;28839;52.404;9.808;2022-09-06T07:12:09;16.53;;;12.60;;
43226;SDS011;28839;52.404;9.808;2022-09-06T07:19:04;14.83;;;12.60;;
43226;SDS011;28839;52.404;9.808;2022-09-06T07:25:59;15.82;;;12.40;;
43226;SDS011;28839;52.404;9.808;2022-09-06T07:32:53;17.83;;;13.23;;
43226;SDS011;28839;52.404;9.808;2022-09-06T07:39:48;16.30;;;12.90;;
43226;SDS011;28839;52.404;9.808;2022-09-06T07:46:42;16.98;;;13.77;;
43226;SDS011;28839;52.404;9.808;2022-09-06T07:53:36;27.00;;;14.03;;
43226;SDS011;28839;52.404;9.808;2022-09-06T08:00:33;18.75;;;12.98;;
43226;SDS011;28839;52.404;9.808;2022-09-06T08:07:26;17.90;;;12.68;;
43226;SDS011;28839;52.404;9.808;2022-09-06T08:14:20;14.13;;;10.63;;
43226;SDS011;28839;52.404;9.808;2022-09-06T08:21:15;12.60;;;11.40;;
43226;SDS011;28839;52.404;9.808;2022-09-06T08:28:09;13.88;;;10.02;;
43226;SDS011;28839;52.404;9.808;2022-09-06T08:35:03;11.90;;;10.23;;
43226;SDS011;28839;52.404;9.808;2022-09-06T08:41:59;11.43;;;8.33;;
43226;SDS011;28839;52.404;9.808;2022-09-06T08:48:56;12.95;;;9.25;;
43226;SDS011;28839;52.404;9.808;2022-09-06T08:55:50;11.95;;;8.48;;
43226;SDS011;28839;52.404;9.808;2022-09-06T09:02:50;8.77;;;7.87;;
43226;SDS011;28839;52.404;9.808;2022-09-06T09:09:51;8.52;;;7.60;;
43226;SDS011;28839;52.404;9.808;2022-09-06T09:16:48;10.00;;;9.07;;
43226;SDS011;28839;52.404;9.808;2022-09-06T09:23:44;9.18;;;8.23;;
43226;SDS011;28839;52.404;9.808;2022-09-06T09:30:45;9.50;;;7.90;;
43226;SDS011;28839;52.404;9.808;2022-09-06T09:37:41;11.48;;;8.65;;
43226;SDS011;28839;52.404;9.808;2022-09-06T09:44:37;9.17;;;6.80;;
43226;SDS011;28839;52.404;9.808;2022-09-06T09:51:35;11.52;;;6.62;;
43226;SDS011;28839;52.404;9.808;2022-09-06T09:58:31;9.07;;;6.35;;
43226;SDS011;28839;52.404;9.808;2022-09-06T10:05:30;9.45;;;5.35;;
43226;SDS011;28839;52.404;9.808;2022-09-06T10:12:28;7.53;;;5.78;;
43226;SDS011;28839;52.404;9.808;2022-09-06T10:19:36;8.18;;;5.37;;
43226;SDS011;28839;52.404;9.808;2022-09-06T10:26:35;8.32;;;5.40;;
43226;SDS011;28839;52.404;9.808;2022-09-06T10:33:39;5.40;;;4.80;;
43226;SDS011;28839;52.404;9.808;2022-09-06T10:40:46;7.95;;;4.85;;
43226;SDS011;28839;52.404;9.808;2022-09-06T10:47:59;10.10;;;4.87;;
43226;SDS011;28839;52.404;9.808;2022-09-06T10:54:58;7.82;;;5.20;;
43226;SDS011;28839;52.404;9.808;2022-09-06T11:01:59;12.75;;;5.62;;
43226;SDS011;28839;52.404;9.808;2022-09-06T11:09:07;7.00;;;4.37;;
43226;SDS011;28839;52.404;9.808;2022-09-06T11:16:07;9.77;;;4.68;;
43226;SDS011;28839;52.404;9.808;2022-09-06T11:23:08;8.45;;;4.60;;
43226;SDS011;28839;52.404;9.808;2022-09-06T11:30:21;10.32;;;3.87;;
43226;SDS011;28839;52.404;9.808;2022-09-06T11:37:22;4.70;;;3.50;;
43226;SDS011;28839;52.404;9.808;2022-09-06T11:51:47;11.73;;;4.82;;
43226;SDS011;28839;52.404;9.808;2022-09-06T11:58:44;7.45;;;3.92;;
43226;SDS011;28839;52.404;9.808;2022-09-06T12:28:05;9.15;;;5.00;;
43226;SDS011;28839;52.404;9.808;2022-09-06T12:35:04;19.90;;;7.50;;
43226;SDS011;28839;52.404;9.808;2022-09-06T12:42:05;6.87;;;4.62;;
43226;SDS011;28839;52.404;9.808;2022-09-06T12:49:06;7.87;;;4.55;;
43226;SDS011;28839;52.404;9.808;2022-09-06T12:56:01;8.43;;;4.95;;
43226;SDS011;28839;52.404;9.808;2022-09-06T13:02:59;11.10;;;4.70;;
43226;SDS011;28839;52.404;9.808;2022-09-06T13:10:01;9.27;;;4.60;;
43226;SDS011;28839;52.404;9.808;2022-09-06T13:16:56;8.48;;;4.43;;
43226;SDS011;28839;52.404;9.808;2022-09-06T13:23:50;7.80;;;4.65;;
43226;SDS011;28839;52.404;9.808;2022-09-06T13:30:46;16.73;;;4.78;;
43226;SDS011;28839;52.404;9.808;2022-09-06T13:45:25;11.57;;;5.22;;
43226;SDS011;28839;52.404;9.808;2022-09-06T13:52:22;7.03;;;4.62;;
43226;SDS011;28839;52.404;9.808;2022-09-06T13:59:20;12.77;;;4.12;;
43226;SDS011;28839;52.404;9.808;2022-09-06T14:06:15;12.60;;;4.85;;
43226;SDS011;28839;52.404;9.808;2022-09-06T14:13:11;11.07;;;4.72;;
43226;SDS011;28839;52.404;9.808;2022-09-06T14:20:05;5.70;;;4.15;;
43226;SDS011;28839;52.404;9.808;2022-09-06T14:27:00;7.82;;;4.12;;
43226;SDS011;28839;52.404;9.808;2022-09-06T14:33:56;9.18;;;4.68;;
43226;SDS011;28839;52.404;9.808;2022-09-06T14:40:51;13.38;;;4.78;;
43226;SDS011;28839;52.404;9.808;2022-09-06T14:47:45;5.80;;;4.18;;
43226;SDS011;28839;52.404;9.808;2022-09-06T14:54:40;8.60;;;4.25;;
43226;SDS011;28839;52.404;9.808;2022-09-06T15:01:34;11.93;;;4.40;;
43226;SDS011;28839;52.404;9.808;2022-09-06T15:08:29;11.40;;;4.57;;
43226;SDS011;28839;52.404;9.808;2022-09-06T15:15:25;9.60;;;4.25;;
43226;SDS011;28839;52.404;9.808;2022-09-06T15:22:19;6.85;;;4.28;;
43226;SDS011;28839;52.404;9.808;2022-09-06T15:29:13;9.02;;;4.32;;
43226;SDS011;28839;52.404;9.808;2022-09-06T15:36:09;15.85;;;4.15;;
43226;SDS011;28839;52.404;9.808;2022-09-06T15:43:04;6.80;;;4.35;;
43226;SDS011;28839;52.404;9.808;2022-09-06T15:49:58;7.18;;;3.72;;
43226;SDS011;28839;52.404;9.808;2022-09-06T15:56:54;17.55;;;4.35;;
43226;SDS011;28839;52.404;9.808;2022-09-06T16:03:53;11.48;;;4.25;;
43226;SDS011;28839;52.404;9.808;2022-09-06T16:10:49;13.38;;;5.03;;
43226;SDS011;28839;52.404;9.808;2022-09-06T16:17:45;6.65;;;4.68;;
43226;SDS011;28839;52.404;9.808;2022-09-06T16:24:39;10.70;;;4.62;;
43226;SDS011;28839;52.404;9.808;2022-09-06T16:31:33;10.10;;;4.70;;
43226;SDS011;28839;52.404;9.808;2022-09-06T16:38:29;7.47;;;4.32;;
43226;SDS011;28839;52.404;9.808;2022-09-06T16:45:23;7.68;;;4.40;;
43226;SDS011;28839;52.404;9.808;2022-09-06T16:52:18;7.15;;;4.53;;
43226;SDS011;28839;52.404;9.808;2022-09-06T16:59:13;11.88;;;4.18;;
43226;SDS011;28839;52.404;9.808;2022-09-06T17:06:08;10.45;;;5.18;;
43226;SDS011;28839;52.404;9.808;2022-09-06T17:19:57;8.30;;;4.62;;
43226;SDS011;28839;52.404;9.808;2022-09-06T17:26:51;8.43;;;4.60;;
43226;SDS011;28839;52.404;9.808;2022-09-06T17:33:45;9.98;;;5.05;;
43226;SDS011;28839;52.404;9.808;2022-09-06T17:40:41;7.20;;;4.70;;
43226;SDS011;28839;52.404;9.808;2022-09-06T17:47:35;7.72;;;4.93;;
43226;SDS011;28839;52.404;9.808;2022-09-06T17:54:29;6.35;;;4.97;;
43226;SDS011;28839;52.404;9.808;2022-09-06T18:08:18;12.43;;;4.93;;
43226;SDS011;28839;52.404;9.808;2022-09-06T18:15:13;8.00;;;5.00;;
43226;SDS011;28839;52.404;9.808;2022-09-06T18:22:07;10.20;;;5.40;;
43226;SDS011;28839;52.404;9.808;2022-09-06T18:29:03;6.25;;;5.03;;
43226;SDS011;28839;52.404;9.808;2022-09-06T18:35:59;14.87;;;5.80;;
43226;SDS011;28839;52.404;9.808;2022-09-06T18:49:48;13.90;;;5.60;;
43226;SDS011;28839;52.404;9.808;2022-09-06T18:56:42;10.00;;;5.70;;
43226;SDS011;28839;52.404;9.808;2022-09-06T19:03:37;9.02;;;5.75;;
43226;SDS011;28839;52.404;9.808;2022-09-06T19:10:33;10.10;;;6.37;;
43226;SDS011;28839;52.404;9.808;2022-09-06T19:17:27;8.95;;;5.95;;
43226;SDS011;28839;52.404;9.808;2022-09-06T19:24:21;6.78;;;6.15;;
43226;SDS011;28839;52.404;9.808;2022-09-06T19:31:20;13.13;;;6.22;;
43226;SDS011;28839;52.404;9.808;2022-09-06T19:38:14;7.55;;;5.47;;
43226;SDS011;28839;52.404;9.808;2022-09-06T19:45:08;12.55;;;6.32;;
43226;SDS011;28839;52.404;9.808;2022-09-06T19:59:01;10.70;;;6.25;;
43226;SDS011;28839;52.404;9.808;2022-09-06T20:05:56;9.98;;;6.00;;
43226;SDS011;28839;52.404;9.808;2022-09-06T20:12:52;7.43;;;5.72;;
43226;SDS011;28839;52.404;9.808;2022-09-06T20:19:46;8.07;;;5.40;;
43226;SDS011;28839;52.404;9.808;2022-09-06T20:26:40;6.10;;;5.50;;
43226;SDS011;28839;52.404;9.808;2022-09-06T20:33:37;10.75;;;6.70;;
43226;SDS011;28839;52.404;9.808;2022-09-06T20:40:31;8.95;;;6.30;;
43226;SDS011;28839;52.404;9.808;2022-09-06T20:47:26;10.80;;;6.32;;
43226;SDS011;28839;52.404;9.808;2022-09-06T20:54:21;8.15;;;6.40;;
43226;SDS011;28839;52.404;9.808;2022-09-06T21:01:16;8.27;;;6.20;;
43226;SDS011;28839;52.404;9.808;2022-09-06T21:08:13;13.25;;;5.95;;
43226;SDS011;28839;52.404;9.808;2022-09-06T21:15:09;7.35;;;6.40;;
43226;SDS011;28839;52.404;9.808;2022-09-06T21:22:03;6.68;;;6.07;;
43226;SDS011;28839;52.404;9.808;2022-09-06T21:28:56;7.33;;;6.10;;
43226;SDS011;28839;52.404;9.808;2022-09-06T21:35:52;7.55;;;6.82;;
43226;SDS011;28839;52.404;9.808;2022-09-06T21:42:50;6.90;;;6.18;;
43226;SDS011;28839;52.404;9.808;2022-09-06T21:49:44;9.33;;;6.43;;
43226;SDS011;28839;52.404;9.808;2022-09-06T21:56:39;7.32;;;6.60;;
43226;SDS011;28839;52.404;9.808;2022-09-06T22:03:33;9.48;;;6.32;;
43226;SDS011;28839;52.404;9.808;2022-09-06T22:10:29;10.50;;;6.35;;
43226;SDS011;28839;52.404;9.808;2022-09-06T22:17:24;8.80;;;7.00;;
43226;SDS011;28839;52.404;9.808;2022-09-06T22:24:18;12.50;;;7.45;;
43226;SDS011;28839;52.404;9.808;2022-09-06T22:31:12;7.80;;;7.10;;
43226;SDS011;28839;52.404;9.808;2022-09-06T22:38:07;9.07;;;7.57;;
43226;SDS011;28839;52.404;9.808;2022-09-06T22:45:02;9.23;;;7.25;;
43226;SDS011;28839;52.404;9.808;2022-09-06T22:58:51;8.13;;;7.28;;
43226;SDS011;28839;52.404;9.808;2022-09-06T23:05:45;10.32;;;7.55;;
43226;SDS011;28839;52.404;9.808;2022-09-06T23:12:38;10.07;;;7.50;;
43226;SDS011;28839;52.404;9.808;2022-09-06T23:19:34;13.93;;;9.07;;
43226;SDS011;28839;52.404;9.808;2022-09-06T23:26:28;9.48;;;8.15;;
43226;SDS011;28839;52.404;9.808;2022-09-06T23:33:23;12.00;;;9.07;;
43226;SDS011;28839;52.404;9.808;2022-09-06T23:40:18;13.85;;;9.55;;
43226;SDS011;28839;52.404;9.808;2022-09-06T23:47:12;10.65;;;9.15;;
43226;SDS011;28839;52.404;9.808;2022-09-06T23:54:06;12.20;;;9.52;;
